createdAt,value
2023-07-03T00:02:26.036Z,86.44
2023-07-03T00:04:53.457Z,86.41
2023-07-03T00:07:20.528Z,85.39
2023-07-03T00:09:47.532Z,85.00
2023-07-03T00:12:14.084Z,85.42
2023-07-03T00:14:40.655Z,84.93
2023-07-03T00:17:11.725Z,84.77
2023-07-03T00:19:38.261Z,86.18
2023-07-03T00:22:05.159Z,86.88
2023-07-03T00:24:32.729Z,87.63
2023-07-03T00:26:59.823Z,88.21
2023-07-03T00:29:30.432Z,86.92
2023-07-03T00:31:57.108Z,86.34
2023-07-03T00:34:24.022Z,86.69
2023-07-03T00:36:50.577Z,86.74
2023-07-03T00:39:17.798Z,86.81
2023-07-03T00:41:44.598Z,89.90
2023-07-03T00:44:14.115Z,89.95
2023-07-03T00:46:43.183Z,90.39
2023-07-03T00:49:11.049Z,90.33
2023-07-03T00:51:41.420Z,89.14
2023-07-03T00:54:07.960Z,87.84
2023-07-03T00:56:34.442Z,87.83
2023-07-03T00:59:02.546Z,89.00
2023-07-03T01:01:36.525Z,86.85
2023-07-03T01:04:16.259Z,86.53
2023-07-03T01:06:55.375Z,88.67
2023-07-03T01:09:25.616Z,89.88
2023-07-03T01:11:52.721Z,87.71
2023-07-03T01:14:21.868Z,86.49
2023-07-03T01:16:50.219Z,85.52
2023-07-03T01:19:30.264Z,85.91
2023-07-03T01:22:02.645Z,87.14
2023-07-03T01:24:33.092Z,84.84
2023-07-03T01:27:04.793Z,84.15
2023-07-03T01:29:34.031Z,83.15
2023-07-03T01:32:04.356Z,81.89
2023-07-03T01:34:33.800Z,80.48
2023-07-03T01:37:02.241Z,81.08
2023-07-03T01:39:28.938Z,80.76
2023-07-03T01:41:56.220Z,80.57
2023-07-03T01:44:22.799Z,80.34
2023-07-03T01:46:49.316Z,81.21
2023-07-03T01:49:17.074Z,80.44
2023-07-03T01:52:04.164Z,79.87
2023-07-03T01:54:40.804Z,81.13
2023-07-03T01:57:08.489Z,81.32
2023-07-03T01:59:35.469Z,80.97
2023-07-03T02:02:08.666Z,80.31
2023-07-03T02:04:42.143Z,79.38
2023-07-03T02:07:10.367Z,79.36
2023-07-03T02:09:37.862Z,79.04
2023-07-03T02:12:08.245Z,78.32
2023-07-03T02:14:36.948Z,78.29
2023-07-03T02:17:04.824Z,77.27
2023-07-03T02:19:32.839Z,78.08
2023-07-03T02:22:00.441Z,79.32
2023-07-03T02:24:27.880Z,75.43
2023-07-03T02:26:54.744Z,82.11
2023-07-03T02:29:21.360Z,80.94
2023-07-03T02:31:47.904Z,80.00
2023-07-03T02:34:15.789Z,78.36
2023-07-03T02:36:42.580Z,76.14
2023-07-03T02:39:10.454Z,78.17
2023-07-03T02:41:37.056Z,75.41
2023-07-03T02:44:03.992Z,76.52
2023-07-03T02:46:32.393Z,76.88
2023-07-03T02:48:59.169Z,75.43
2023-07-03T02:51:25.801Z,74.76
2023-07-03T02:53:55.723Z,73.83
2023-07-03T02:56:22.324Z,73.80
2023-07-03T02:58:49.032Z,73.67
2023-07-03T03:01:21.190Z,71.49
2023-07-03T03:03:48.622Z,71.00
2023-07-03T03:06:15.348Z,72.09
2023-07-03T03:08:41.883Z,73.26
2023-07-03T03:11:08.885Z,71.48
2023-07-03T03:13:35.541Z,70.82
2023-07-03T03:16:02.153Z,71.08
2023-07-03T03:18:28.794Z,70.67
2023-07-03T03:20:55.325Z,70.26
2023-07-03T03:23:21.965Z,70.69
2023-07-03T03:25:48.690Z,71.10
2023-07-03T03:28:15.534Z,69.50
2023-07-03T03:30:42.243Z,71.06
2023-07-03T03:33:08.878Z,71.22
2023-07-03T03:35:35.523Z,72.91
2023-07-03T03:38:02.407Z,72.84
2023-07-03T03:40:29.082Z,73.24
2023-07-03T03:42:55.582Z,71.71
2023-07-03T03:45:22.127Z,73.82
2023-07-03T03:47:49.447Z,72.47
2023-07-03T03:50:16.996Z,71.73
2023-07-03T03:52:43.600Z,71.74
2023-07-03T03:55:10.263Z,74.04
2023-07-03T03:57:36.967Z,72.82
2023-07-03T04:00:05.151Z,72.56
2023-07-03T04:02:39.092Z,71.80
2023-07-03T04:05:06.423Z,67.48
2023-07-03T04:07:33.062Z,66.48
2023-07-03T04:09:59.552Z,66.30
2023-07-03T04:12:26.086Z,65.12
2023-07-03T04:14:52.694Z,65.11
2023-07-03T04:17:19.205Z,64.86
2023-07-03T04:19:45.684Z,65.02
2023-07-03T04:22:12.224Z,65.31
2023-07-03T04:24:38.797Z,64.88
2023-07-03T04:27:06.201Z,65.13
2023-07-03T04:29:32.661Z,65.98
2023-07-03T04:31:59.224Z,65.67
2023-07-03T04:34:25.751Z,65.40
2023-07-03T04:36:52.239Z,65.10
2023-07-03T04:39:18.699Z,65.33
2023-07-03T04:41:45.384Z,65.33
2023-07-03T04:44:13.648Z,64.49
2023-07-03T04:46:41.007Z,64.46
2023-07-03T04:49:08.775Z,64.29
2023-07-03T04:51:35.345Z,63.57
2023-07-03T04:54:02.220Z,63.77
2023-07-03T04:56:29.962Z,64.16
2023-07-03T04:58:56.537Z,64.02
2023-07-03T05:01:25.227Z,63.79
2023-07-03T05:03:51.923Z,62.82
2023-07-03T05:06:18.483Z,62.60
2023-07-03T05:08:47.639Z,62.57
2023-07-03T05:11:14.119Z,62.62
2023-07-03T05:13:40.591Z,62.93
2023-07-03T05:16:07.215Z,63.18
2023-07-03T05:18:33.768Z,62.21
2023-07-03T05:21:00.339Z,62.40
2023-07-03T05:23:26.880Z,63.24
2023-07-03T05:25:53.670Z,63.41
2023-07-03T05:28:20.372Z,63.64
2023-07-03T05:30:54.497Z,63.29
2023-07-03T05:33:20.947Z,63.46
2023-07-03T05:35:50.992Z,62.42
2023-07-03T05:38:19.865Z,62.75
2023-07-03T05:40:47.277Z,62.11
2023-07-03T05:43:14.739Z,63.09
2023-07-03T05:45:41.870Z,63.55
2023-07-03T05:48:08.775Z,62.97
2023-07-03T05:50:35.377Z,62.90
2023-07-03T05:53:01.872Z,63.82
2023-07-03T05:55:28.310Z,62.49
2023-07-03T05:57:54.926Z,63.28
2023-07-03T06:00:23.046Z,63.15
2023-07-03T06:02:53.089Z,62.55
2023-07-03T06:05:21.257Z,62.39
2023-07-03T06:07:48.367Z,60.26
2023-07-03T06:10:14.920Z,61.36
2023-07-03T06:12:42.628Z,60.19
2023-07-03T06:15:10.392Z,61.09
2023-07-03T06:17:41.871Z,60.66
2023-07-03T06:20:09.149Z,59.08
2023-07-03T06:22:35.678Z,60.60
2023-07-03T06:25:02.200Z,59.63
2023-07-03T06:27:28.708Z,59.43
2023-07-03T06:29:55.187Z,59.78
2023-07-03T06:32:21.718Z,59.12
2023-07-03T06:34:48.251Z,59.75
2023-07-03T06:37:14.999Z,59.84
2023-07-03T06:39:41.827Z,59.46
2023-07-03T06:42:10.590Z,59.08
2023-07-03T06:44:41.796Z,59.31
2023-07-03T06:47:08.357Z,58.57
2023-07-03T06:49:36.067Z,59.00
2023-07-03T06:52:02.814Z,59.47
2023-07-03T06:54:29.354Z,58.67
2023-07-03T06:56:55.938Z,59.92
2023-07-03T06:59:22.510Z,59.60
2023-07-03T07:01:49.012Z,59.65
2023-07-03T07:04:16.214Z,60.23
2023-07-03T07:06:42.884Z,60.53
2023-07-03T07:09:09.394Z,60.10
2023-07-03T07:11:36.876Z,60.41
2023-07-03T07:14:05.634Z,61.42
2023-07-03T07:16:35.600Z,61.30
2023-07-03T07:19:05.092Z,62.77
2023-07-03T07:21:33.824Z,63.30
2023-07-03T07:24:12.332Z,63.61
2023-07-03T07:26:39.041Z,62.45
2023-07-03T07:29:05.566Z,62.83
2023-07-03T07:31:32.528Z,63.28
2023-07-03T07:33:59.152Z,62.90
2023-07-03T07:36:27.507Z,62.77
2023-07-03T07:38:56.701Z,62.49
2023-07-03T07:41:25.961Z,62.82
2023-07-03T07:43:53.512Z,62.56
2023-07-03T07:46:20.451Z,62.35
2023-07-03T07:48:50.164Z,62.49
2023-07-03T07:51:16.722Z,63.06
2023-07-03T07:53:43.222Z,63.85
2023-07-03T07:56:11.390Z,62.95
2023-07-03T07:58:38.885Z,62.37
2023-07-03T08:01:06.707Z,63.28
2023-07-03T08:03:33.521Z,63.82
2023-07-03T08:06:05.708Z,64.73
2023-07-03T08:08:33.558Z,64.75
2023-07-03T08:11:01.943Z,63.13
2023-07-03T08:13:31.320Z,62.12
2023-07-03T08:15:58.414Z,60.77
2023-07-03T08:18:25.966Z,61.22
2023-07-03T08:20:53.646Z,58.69
2023-07-03T08:23:20.722Z,58.69
2023-07-03T08:25:55.137Z,59.25
2023-07-03T08:28:23.196Z,60.74
2023-07-03T08:30:49.721Z,59.61
2023-07-03T08:33:16.653Z,60.19
2023-07-03T08:38:13.302Z,59.48
2023-07-03T08:40:39.978Z,58.34
2023-07-03T08:43:10.887Z,58.18
2023-07-03T08:45:41.346Z,57.36
2023-07-03T08:48:15.838Z,56.81
2023-07-03T08:50:48.233Z,57.95
2023-07-03T08:53:19.609Z,57.44
2023-07-03T08:55:52.691Z,56.75
2023-07-03T08:58:19.427Z,55.14
2023-07-03T09:01:09.979Z,55.25
2023-07-03T09:03:53.549Z,54.83
2023-07-03T09:06:26.542Z,54.97
2023-07-03T09:09:14.105Z,54.55
2023-07-03T09:11:45.870Z,56.23
2023-07-03T09:14:21.478Z,54.40
2023-07-03T09:16:48.662Z,53.92
2023-07-03T09:19:26.342Z,53.52
2023-07-03T09:21:57.548Z,53.33
2023-07-03T09:24:30.518Z,52.48
2023-07-03T09:27:06.463Z,50.55
2023-07-03T09:29:35.809Z,49.91
2023-07-03T09:32:02.469Z,47.76
2023-07-03T09:35:09.964Z,48.53
2023-07-03T09:37:41.869Z,46.38
2023-07-03T09:40:15.573Z,46.26
2023-07-03T09:42:43.049Z,45.81
2023-07-03T09:45:23.678Z,46.39
2023-07-03T09:48:01.698Z,45.76
2023-07-03T09:50:32.531Z,45.75
2023-07-03T09:53:08.373Z,45.59
2023-07-03T09:55:36.575Z,44.78
2023-07-03T09:58:12.089Z,45.86
2023-07-03T10:00:51.452Z,46.19
2023-07-03T10:12:00.800Z,46.14
2023-07-03T10:14:40.365Z,45.74
2023-07-03T10:17:13.645Z,46.11
2023-07-03T10:19:46.969Z,46.80
2023-07-03T10:22:15.322Z,46.69
2023-07-03T10:24:43.886Z,47.01
2023-07-03T10:27:10.442Z,46.70
2023-07-03T10:29:42.909Z,45.99
2023-07-03T10:32:15.572Z,45.79
2023-07-03T10:34:49.802Z,45.86
2023-07-03T10:37:19.955Z,46.84
2023-07-03T10:39:54.243Z,45.66
2023-07-03T10:42:45.231Z,46.68
2023-07-03T10:45:15.880Z,46.81
2023-07-03T10:47:55.303Z,46.74
2023-07-03T10:53:51.737Z,47.18
2023-07-03T10:56:29.648Z,46.22
2023-07-03T10:59:06.758Z,46.50
2023-07-03T11:01:49.775Z,46.92
2023-07-03T11:04:44.444Z,47.16
2023-07-03T11:07:31.433Z,46.91
2023-07-03T11:10:07.355Z,46.58
2023-07-03T11:12:42.655Z,46.36
2023-07-03T11:15:33.857Z,45.99
2023-07-03T11:23:48.208Z,47.44
2023-07-03T11:28:58.339Z,49.01
2023-07-03T11:31:26.842Z,49.54
2023-07-03T11:37:03.232Z,51.25
2023-07-03T11:44:39.157Z,49.16
2023-07-03T11:47:08.552Z,48.54
2023-07-03T11:49:50.433Z,49.45
2023-07-03T11:52:24.734Z,49.81
2023-07-03T11:55:11.541Z,50.56
2023-07-03T11:57:41.186Z,51.34
2023-07-03T12:00:18.064Z,51.38
2023-07-03T12:03:39.914Z,50.44
2023-07-03T12:06:06.303Z,50.26
2023-07-03T12:08:40.494Z,48.55
2023-07-03T12:11:08.163Z,48.20
2023-07-03T12:13:41.214Z,48.97
2023-07-03T12:16:17.677Z,49.44
2023-07-03T12:18:44.323Z,48.05
2023-07-03T12:21:11.800Z,48.45
2023-07-03T12:23:43.436Z,46.88
2023-07-03T12:26:12.354Z,47.44
2023-07-03T12:28:39.664Z,45.85
2023-07-03T12:31:11.977Z,44.07
2023-07-03T12:33:51.425Z,43.76
2023-07-03T12:36:35.030Z,44.80
2023-07-03T12:39:14.435Z,44.86
2023-07-03T12:41:41.368Z,44.87
2023-07-03T12:44:10.020Z,44.15
2023-07-03T12:46:39.614Z,43.35
2023-07-03T12:49:12.570Z,43.75
2023-07-03T12:51:40.182Z,44.05
2023-07-03T12:54:09.021Z,44.00
2023-07-03T12:56:37.036Z,44.14
2023-07-03T12:59:03.771Z,43.73
2023-07-03T13:01:32.411Z,42.78
2023-07-03T13:03:59.033Z,41.96
2023-07-03T13:06:30.367Z,41.70
2023-07-03T13:08:58.609Z,41.35
2023-07-03T13:11:40.586Z,41.95
2023-07-03T13:14:13.063Z,41.93
2023-07-03T13:16:41.614Z,41.40
2023-07-03T13:19:08.235Z,40.58
2023-07-03T13:21:36.609Z,39.93
2023-07-03T13:24:16.096Z,41.70
2023-07-03T13:26:48.400Z,42.41
2023-07-03T13:29:15.964Z,41.99
2023-07-03T13:31:52.100Z,42.38
2023-07-03T13:34:23.912Z,43.01
2023-07-03T13:37:04.932Z,41.97
2023-07-03T13:39:33.810Z,42.40
2023-07-03T13:42:00.748Z,42.95
2023-07-03T13:44:27.686Z,42.94
2023-07-03T13:46:55.565Z,44.31
2023-07-03T13:49:22.260Z,44.22
2023-07-03T13:51:51.345Z,43.79
2023-07-03T13:54:18.805Z,44.26
2023-07-03T13:56:45.384Z,43.84
2023-07-03T13:59:12.603Z,44.57
2023-07-03T14:01:40.973Z,42.52
2023-07-03T14:04:08.212Z,38.02
2023-07-03T14:06:35.024Z,37.18
2023-07-03T14:09:01.923Z,38.14
2023-07-03T14:11:28.642Z,38.97
2023-07-03T14:13:56.491Z,39.47
2023-07-03T14:16:23.436Z,39.89
2023-07-03T14:18:50.075Z,39.08
2023-07-03T14:21:18.210Z,40.13
2023-07-03T14:23:45.578Z,40.70
2023-07-03T14:26:13.555Z,40.28
2023-07-03T14:28:40.616Z,40.74
2023-07-03T14:31:09.123Z,41.53
2023-07-03T14:33:36.008Z,42.14
2023-07-03T14:36:02.714Z,42.13
2023-07-03T14:38:29.292Z,43.10
2023-07-03T14:40:57.594Z,42.75
2023-07-03T14:43:24.158Z,43.40
2023-07-03T14:45:50.952Z,43.18
2023-07-03T14:48:17.787Z,42.88
2023-07-03T14:50:44.346Z,42.27
2023-07-03T14:53:10.805Z,38.58
2023-07-03T14:55:37.393Z,37.15
2023-07-03T14:58:04.017Z,36.25
2023-07-03T15:00:30.548Z,35.45
2023-07-03T15:02:57.261Z,35.29
2023-07-03T15:05:23.982Z,36.32
2023-07-03T15:07:53.118Z,36.74
2023-07-03T15:10:20.121Z,37.88
2023-07-03T15:12:47.066Z,36.07
2023-07-03T15:15:14.024Z,34.49
2023-07-03T15:17:41.056Z,33.53
2023-07-03T15:20:09.097Z,32.94
2023-07-03T15:22:35.965Z,35.50
2023-07-03T15:25:02.930Z,37.21
2023-07-03T15:27:29.545Z,37.95
2023-07-03T15:29:56.062Z,38.04
2023-07-03T15:32:22.696Z,36.67
2023-07-03T15:34:52.404Z,34.93
2023-07-03T15:37:18.931Z,37.53
2023-07-03T15:39:45.471Z,37.02
2023-07-03T15:42:11.986Z,37.74
2023-07-03T15:44:38.498Z,34.99
2023-07-03T15:47:08.825Z,34.37
2023-07-03T15:49:39.031Z,35.22
2023-07-03T15:52:06.159Z,34.17
2023-07-03T15:54:35.790Z,32.69
2023-07-03T15:57:04.132Z,34.26
2023-07-03T15:59:31.028Z,35.09
2023-07-03T16:01:58.250Z,37.18
2023-07-03T16:04:24.988Z,38.10
2023-07-03T16:06:51.575Z,38.98
2023-07-03T16:09:18.092Z,40.38
2023-07-03T16:11:44.676Z,40.70
2023-07-03T16:14:11.288Z,41.21
2023-07-03T16:16:37.763Z,42.32
2023-07-03T16:19:04.645Z,41.92
2023-07-03T16:21:32.364Z,42.56
2023-07-03T16:23:59.211Z,42.38
2023-07-03T16:26:27.566Z,42.50
2023-07-03T16:28:55.009Z,42.38
2023-07-03T16:31:23.641Z,42.38
2023-07-03T16:33:52.428Z,42.83
2023-07-03T16:36:22.482Z,42.75
2023-07-03T16:38:54.058Z,43.05
2023-07-03T16:41:21.885Z,42.83
2023-07-03T16:43:50.352Z,42.27
2023-07-03T16:46:19.889Z,41.65
2023-07-03T16:48:48.182Z,41.59
2023-07-03T16:51:15.287Z,41.75
2023-07-03T16:53:42.843Z,40.45
2023-07-03T16:56:14.778Z,40.12
2023-07-03T16:58:43.134Z,40.22
2023-07-03T17:01:21.156Z,40.61
2023-07-03T17:03:49.763Z,37.92
2023-07-03T17:06:26.136Z,37.77
2023-07-03T17:08:54.000Z,37.86
2023-07-03T17:11:20.507Z,38.91
2023-07-03T17:13:48.692Z,39.29
2023-07-03T17:16:15.961Z,40.58
2023-07-03T17:18:43.497Z,42.11
2023-07-03T17:21:10.016Z,42.62
2023-07-03T17:23:36.550Z,43.18
2023-07-03T17:26:04.164Z,43.76
2023-07-03T17:28:30.746Z,43.69
2023-07-03T17:30:57.335Z,44.15
2023-07-03T17:33:23.819Z,44.17
2023-07-03T17:35:50.671Z,44.18
2023-07-03T17:38:17.853Z,44.49
2023-07-03T17:40:47.232Z,45.14
2023-07-03T17:43:18.349Z,45.38
2023-07-03T17:45:45.840Z,45.65
2023-07-03T17:48:12.509Z,45.67
2023-07-03T17:50:40.123Z,46.03
2023-07-03T17:53:07.456Z,46.56
2023-07-03T17:55:33.936Z,46.79
2023-07-03T17:58:01.082Z,47.01
2023-07-03T18:00:27.683Z,47.30
2023-07-03T18:02:54.245Z,47.51
2023-07-03T18:05:21.473Z,47.82
2023-07-03T18:07:48.485Z,48.10
2023-07-03T18:10:15.074Z,48.95
2023-07-03T18:12:41.605Z,48.76
2023-07-03T18:15:08.648Z,49.98
2023-07-03T18:17:35.138Z,50.28
2023-07-03T18:20:04.849Z,50.56
2023-07-03T18:22:32.907Z,51.23
2023-07-03T18:25:02.668Z,51.45
2023-07-03T18:27:29.633Z,51.59
2023-07-03T18:29:56.140Z,51.68
2023-07-03T18:32:22.719Z,52.51
2023-07-03T18:34:49.227Z,52.96
2023-07-03T18:37:15.806Z,53.58
2023-07-03T18:39:42.365Z,53.54
2023-07-03T18:42:08.974Z,53.42
2023-07-03T18:44:35.568Z,53.40
2023-07-03T18:47:04.549Z,53.61
2023-07-03T18:49:31.120Z,54.48
2023-07-03T18:51:57.574Z,54.38
2023-07-03T18:54:24.718Z,55.87
2023-07-03T18:56:52.319Z,56.41
2023-07-03T18:59:18.869Z,56.96
2023-07-03T19:01:45.972Z,58.08
2023-07-03T19:04:12.995Z,59.22
2023-07-03T19:06:40.273Z,59.10
2023-07-03T19:09:08.892Z,59.84
2023-07-03T19:11:35.396Z,60.40
2023-07-03T19:14:01.944Z,60.43
2023-07-03T19:16:29.601Z,60.84
2023-07-03T19:18:56.358Z,61.50
2023-07-03T19:21:22.901Z,61.60
2023-07-03T19:23:49.406Z,62.20
2023-07-03T19:26:16.014Z,61.57
2023-07-03T19:28:45.176Z,63.36
2023-07-03T19:31:11.960Z,63.11
2023-07-03T19:33:38.450Z,64.91
2023-07-03T19:36:12.469Z,65.33
2023-07-03T19:38:41.150Z,67.08
2023-07-03T19:41:08.001Z,66.86
2023-07-03T19:43:34.592Z,67.55
2023-07-03T19:46:01.103Z,68.20
2023-07-03T19:48:27.788Z,67.71
2023-07-03T19:50:54.273Z,68.13
2023-07-03T19:53:20.789Z,68.78
2023-07-03T19:55:47.379Z,68.10
2023-07-03T19:58:13.925Z,67.52
2023-07-03T20:00:40.432Z,68.16
2023-07-03T20:03:07.529Z,67.80
2023-07-03T20:05:36.247Z,68.92
2023-07-03T20:08:03.667Z,68.75
2023-07-03T20:10:30.333Z,68.94
2023-07-03T20:12:56.832Z,68.36
2023-07-03T20:15:23.689Z,67.79
2023-07-03T20:17:50.421Z,67.77
2023-07-03T20:20:17.110Z,66.78
2023-07-03T20:22:44.880Z,66.78
2023-07-03T20:25:11.645Z,67.11
2023-07-03T20:27:38.765Z,67.09
2023-07-03T20:30:07.266Z,67.06
2023-07-03T20:32:35.449Z,66.79
2023-07-03T20:35:05.469Z,66.83
2023-07-03T20:37:32.706Z,67.40
2023-07-03T20:40:00.015Z,67.38
2023-07-03T20:42:28.209Z,67.80
2023-07-03T20:44:56.467Z,68.12
2023-07-03T20:47:25.871Z,68.51
2023-07-03T20:49:55.859Z,68.88
2023-07-03T20:52:23.533Z,69.86
2023-07-03T20:55:07.938Z,70.15
2023-07-03T20:57:36.380Z,69.82
2023-07-03T21:00:05.984Z,69.98
2023-07-03T21:02:35.747Z,70.49
2023-07-03T21:05:02.553Z,70.38
2023-07-03T21:07:29.012Z,70.51
2023-07-03T21:09:55.561Z,70.15
2023-07-03T21:12:22.128Z,70.52
2023-07-03T21:14:48.978Z,70.92
2023-07-03T21:17:15.420Z,71.49
2023-07-03T21:19:42.052Z,71.60
2023-07-03T21:22:08.920Z,71.65
2023-07-03T21:24:35.383Z,71.70
2023-07-03T21:27:01.895Z,71.89
2023-07-03T21:29:28.354Z,72.64
2023-07-03T21:31:54.971Z,72.73
2023-07-03T21:34:21.448Z,72.69
2023-07-03T21:36:47.988Z,72.26
2023-07-03T21:39:14.511Z,72.84
2023-07-03T21:41:43.056Z,72.90
2023-07-03T21:44:15.640Z,73.02
2023-07-03T21:46:42.664Z,73.46
2023-07-03T21:49:14.622Z,73.56
2023-07-03T21:51:41.616Z,73.87
2023-07-03T21:54:08.259Z,73.75
2023-07-03T21:56:34.752Z,74.33
2023-07-03T21:59:04.260Z,74.33
2023-07-03T22:01:34.426Z,74.64
2023-07-03T22:04:02.866Z,74.84
2023-07-03T22:06:29.667Z,75.10
2023-07-03T22:08:57.199Z,75.25
2023-07-03T22:11:24.832Z,75.72
2023-07-03T22:13:51.991Z,76.28
2023-07-03T22:16:19.436Z,76.85
2023-07-03T22:18:46.920Z,76.92
2023-07-03T22:21:15.453Z,76.90
2023-07-03T22:23:42.396Z,77.32
2023-07-03T22:26:08.985Z,77.82
2023-07-03T22:28:35.539Z,77.33
2023-07-03T22:31:02.069Z,78.31
2023-07-03T22:33:30.119Z,78.27
2023-07-03T22:35:56.652Z,78.82
2023-07-03T22:38:23.238Z,78.58
2023-07-03T22:40:51.399Z,79.27
2023-07-03T22:43:18.976Z,79.48
2023-07-03T22:45:46.002Z,79.48
2023-07-03T22:48:12.755Z,82.93
2023-07-03T22:50:41.020Z,83.23
2023-07-03T22:53:09.361Z,83.58
2023-07-03T22:55:40.853Z,83.01
2023-07-03T22:58:09.494Z,82.79
2023-07-03T23:00:38.959Z,82.39
2023-07-03T23:03:05.505Z,82.29
2023-07-03T23:05:32.166Z,82.47
2023-07-03T23:07:58.744Z,83.06
2023-07-03T23:10:25.228Z,82.79
2023-07-03T23:12:51.821Z,82.68
2023-07-03T23:15:18.304Z,83.28
2023-07-03T23:17:44.846Z,83.77
2023-07-03T23:20:12.316Z,84.44
2023-07-03T23:22:42.787Z,84.58
2023-07-03T23:25:09.667Z,84.86
2023-07-03T23:27:36.165Z,84.85
2023-07-03T23:30:05.376Z,84.95
2023-07-03T23:32:34.370Z,84.59
2023-07-03T23:35:01.424Z,85.36
2023-07-03T23:37:28.110Z,85.53
2023-07-03T23:39:54.864Z,85.73
2023-07-03T23:42:21.475Z,87.64
2023-07-03T23:44:47.974Z,88.67
2023-07-03T23:47:15.881Z,90.87
2023-07-03T23:49:42.495Z,91.37
2023-07-03T23:52:08.961Z,90.86
2023-07-03T23:54:37.831Z,90.05
2023-07-03T23:57:04.724Z,90.17
2023-07-03T23:59:31.180Z,90.67
